Rensselaer, IN

10:08 PM CST on February 12, 2016 (GMT -0600)
Jasper County

Weather History for KRZL - November, 2013

Change the Weather History Date:

Thursday, November 28, 2013

  Actual Average (KVPZ) Record (KVPZ)
Temperature  
Mean Temperature 28 °F 35 °F  
Max Temperature 35 °F 42 °F 67 °F (1998)
Min Temperature 21 °F 28 °F 15 °F (2014)
Degree Days  
Heating Degree Days 37 30  
Month to date heating degree days 665  
Since 1 July heating degree days 1195  
Cooling Degree Days 0 0  
Month to date cooling degree days 0  
Year to date cooling degree days 713  
Moisture  
Dew Point 16 °F    
Average Humidity 63    
Maximum Humidity 86    
Minimum Humidity 41    
Precipitation  
Precipitation 0.00 in 0.11 in 0.53 in (2005)
Month to date precipitation 3.13  
Year to date precipitation 35.13  
Sea Level Pressure  
Sea Level Pressure 30.30 in    
Wind  
Wind Speed 9 mph (SW)    
Max Wind Speed 20 mph    
Max Gust Speed 31 mph    
Visibility 10 miles    
Events      
T = Trace of Precipitation, MM = Missing Value Source: NWS Daily Summary

Daily Weather History Graph

Daily Weather History Graph

Search for Another Location

Airport or City:

Trip Planner

Search our weather history database for the weather conditions in past years. The results will help you decide how hot, cold, wet, or windy it might be!

Date:

Astronomy

Nov. 28, 2013 Rise Set
Actual Time 6:51 AM CST 4:22 PM CST
Civil Twilight 6:20 AM CST 4:52 PM CST
Nautical Twilight 5:46 AM CST 5:26 PM CST
Astronomical Twilight 5:13 AM CST 5:59 PM CST
Moon 1:51 AM CST (11/28) 1:33 PM CST (11/28)
Length of Visible Light 10h 31m
Length of Day
9h 30m
Waning Crescent, 22% of the Moon is Illuminated
Nov 28
Waning Crescent
Dec 2
New
Dec 9
First Quarter
Dec 17
Full
Dec 25
Last Quarter

Hourly Weather History & Observations

Time (CST) Temp. Windchill Dew Point Humidity Pressure Visibility Wind Dir Wind Speed Gust Speed Precip Events Conditions
12:15 AM 21.2 °F 16.4 °F 17.6 °F 86% 30.27 in 10.0 mi SW 3.5 mph - N/A   Clear
12:35 AM 21.2 °F 14.9 °F 17.6 °F 86% 30.26 in 10.0 mi SW 4.6 mph - N/A   Scattered Clouds
12:55 AM 21.2 °F 13.6 °F 17.6 °F 86% 30.26 in 10.0 mi SW 5.8 mph - N/A   Mostly Cloudy
1:15 AM 23.0 °F 17.0 °F 17.6 °F 80% 30.27 in 10.0 mi SW 4.6 mph - N/A   Overcast
1:35 AM 23.0 °F 18.4 °F 17.6 °F 80% 30.27 in 10.0 mi SW 3.5 mph - N/A   Overcast
1:55 AM 23.0 °F 18.4 °F 17.6 °F 80% 30.27 in 10.0 mi SSW 3.5 mph - N/A   Overcast
2:15 AM 23.0 °F 15.8 °F 17.6 °F 80% 30.27 in 10.0 mi SSW 5.8 mph - N/A   Overcast
2:35 AM 23.0 °F 14.7 °F 17.6 °F 80% 30.27 in 10.0 mi SSW 6.9 mph - N/A   Overcast
2:55 AM 23.0 °F 14.7 °F 17.6 °F 80% 30.27 in 10.0 mi SSW 6.9 mph - N/A   Overcast
3:15 AM 23.0 °F 13.9 °F 17.6 °F 80% 30.27 in 10.0 mi SSW 8.1 mph - N/A   Overcast
3:35 AM 23.0 °F 13.1 °F 17.6 °F 80% 30.27 in 10.0 mi South 9.2 mph - N/A   Overcast
3:55 AM 24.8 °F 16.1 °F 15.8 °F 69% 30.27 in 10.0 mi SSW 8.1 mph - N/A   Overcast
4:15 AM 24.8 °F 16.1 °F 15.8 °F 69% 30.27 in 10.0 mi SSW 8.1 mph - N/A   Overcast
4:35 AM 24.8 °F 16.1 °F 15.8 °F 69% 30.27 in 10.0 mi South 8.1 mph - N/A   Overcast
4:55 AM 26.6 °F 16.8 °F 14.0 °F 59% 30.26 in 10.0 mi South 10.4 mph - N/A   Overcast
5:15 AM 26.6 °F 17.5 °F 14.0 °F 59% 30.26 in 10.0 mi South 9.2 mph - N/A   Overcast
5:35 AM 24.8 °F 15.3 °F 14.0 °F 64% 30.26 in 10.0 mi South 9.2 mph - N/A   Overcast
5:55 AM 24.8 °F 14.0 °F 14.0 °F 64% 30.26 in 10.0 mi South 11.5 mph - N/A   Overcast
6:15 AM 24.8 °F 14.0 °F 14.0 °F 64% 30.26 in 10.0 mi South 11.5 mph 17.3 mph N/A   Overcast
6:35 AM 24.8 °F 14.6 °F 14.0 °F 64% 30.27 in 10.0 mi South 10.4 mph - N/A   Overcast
6:55 AM 24.8 °F 14.6 °F 14.0 °F 64% 30.26 in 10.0 mi South 10.4 mph - N/A   Overcast
7:15 AM 26.6 °F 15.7 °F 14.0 °F 59% 30.26 in 10.0 mi SSW 12.7 mph - N/A   Overcast
7:35 AM 26.6 °F 16.2 °F 14.0 °F 59% 30.27 in 10.0 mi South 11.5 mph 16.1 mph N/A   Overcast
7:55 AM 26.6 °F 16.8 °F 12.2 °F 55% 30.27 in 10.0 mi South 10.4 mph - N/A   Overcast
8:15 AM 26.6 °F 14.7 °F 12.2 °F 55% 30.27 in 10.0 mi South 15.0 mph - N/A   Overcast
8:35 AM 26.6 °F 14.3 °F 12.2 °F 55% 30.27 in 10.0 mi South 16.1 mph 19.6 mph N/A   Overcast
8:55 AM 28.4 °F 16.2 °F 12.2 °F 51% 30.27 in 10.0 mi South 17.3 mph 21.9 mph N/A   Overcast
9:15 AM 28.4 °F 17.0 °F 12.2 °F 51% 30.27 in 10.0 mi South 15.0 mph 23.0 mph N/A   Overcast
9:35 AM 28.4 °F 15.8 °F 12.2 °F 51% 30.25 in 10.0 mi South 18.4 mph 23.0 mph N/A   Scattered Clouds
9:55 AM 30.2 °F 19.3 °F 12.2 °F 47% 30.24 in 10.0 mi South 15.0 mph 21.9 mph N/A   Clear
10:15 AM 32.0 °F 20.5 °F 12.2 °F 44% 30.24 in 10.0 mi South 18.4 mph 24.2 mph N/A   Clear
10:35 AM 32.0 °F 20.5 °F 12.2 °F 44% 30.24 in 10.0 mi SSW 18.4 mph 26.5 mph N/A   Clear
10:55 AM 32.0 °F 20.1 °F 12.2 °F 44% 30.22 in 10.0 mi SSW 19.6 mph 25.3 mph N/A   Clear
11:15 AM 33.8 °F 22.8 °F 12.2 °F 41% 30.22 in 10.0 mi SSW 18.4 mph 31.1 mph N/A   Clear
11:35 AM 33.8 °F 22.8 °F 14.0 °F 44% 30.21 in 10.0 mi SSW 18.4 mph 25.3 mph N/A   Clear
11:55 AM 33.8 °F 23.9 °F 14.0 °F 44% 30.20 in 10.0 mi SSW 15.0 mph 21.9 mph N/A   Clear
12:15 PM 33.8 °F 24.3 °F 14.0 °F 44% 30.20 in 10.0 mi SW 13.8 mph 24.2 mph N/A   Clear
12:35 PM 35.6 °F 25.5 °F 14.0 °F 41% 30.20 in 10.0 mi SSW 17.3 mph 23.0 mph N/A   Clear
12:55 PM 35.6 °F 25.5 °F 14.0 °F 41% 30.20 in 10.0 mi WSW 17.3 mph 25.3 mph N/A   Clear
1:15 PM 35.6 °F 25.5 °F 14.0 °F 41% 30.20 in 10.0 mi SW 17.3 mph 23.0 mph N/A   Clear
1:35 PM 35.6 °F 25.9 °F 15.8 °F 44% 30.20 in 10.0 mi WSW 16.1 mph - N/A   Clear
1:55 PM 35.6 °F 25.2 °F 15.8 °F 44% 30.20 in 10.0 mi SW 18.4 mph 23.0 mph N/A   Clear
2:15 PM 35.6 °F 25.5 °F 15.8 °F 44% 30.21 in 10.0 mi WSW 17.3 mph 20.7 mph N/A   Clear
2:35 PM 35.6 °F 25.2 °F 17.6 °F 48% 30.22 in 10.0 mi SW 18.4 mph 21.9 mph N/A   Clear
2:55 PM 35.6 °F 26.6 °F 17.6 °F 48% 30.24 in 10.0 mi WSW 13.8 mph - N/A   Clear
3:15 PM 35.6 °F 27.1 °F 17.6 °F 48% 30.25 in 10.0 mi WSW 12.7 mph 18.4 mph N/A   Clear
3:35 PM 35.6 °F 27.5 °F 17.6 °F 48% 30.26 in 10.0 mi West 11.5 mph 17.3 mph N/A   Clear
3:55 PM 33.8 °F 25.8 °F 17.6 °F 52% 30.27 in 10.0 mi West 10.4 mph - N/A   Clear
4:15 PM 32.0 °F 24.2 °F 17.6 °F 55% 30.28 in 10.0 mi West 9.2 mph - N/A   Clear
4:35 PM 32.0 °F 26.4 °F 17.6 °F 55% 30.30 in 10.0 mi West 5.8 mph - N/A   Clear
4:55 PM 32.0 °F 26.4 °F 17.6 °F 55% 30.31 in 10.0 mi West 5.8 mph - N/A   Clear
5:15 PM 30.2 °F 24.3 °F 17.6 °F 60% 30.32 in 10.0 mi WNW 5.8 mph - N/A   Clear
5:35 PM 28.4 °F 23.3 °F 17.6 °F 64% 30.34 in 10.0 mi WNW 4.6 mph - N/A   Clear
5:55 PM 30.2 °F 25.4 °F 17.6 °F 60% 30.35 in 10.0 mi WNW 4.6 mph - N/A   Clear
6:15 PM 28.4 °F 23.3 °F 17.6 °F 64% 30.36 in 10.0 mi West 4.6 mph - N/A   Clear
6:35 PM 28.4 °F 23.3 °F 17.6 °F 64% 30.36 in 10.0 mi West 4.6 mph - N/A   Clear
6:55 PM 28.4 °F 22.2 °F 17.6 °F 64% 30.38 in 10.0 mi West 5.8 mph - N/A   Clear
7:15 PM 28.4 °F 22.2 °F 17.6 °F 64% 30.38 in 10.0 mi West 5.8 mph - N/A   Clear
7:35 PM 26.6 °F 20.0 °F 17.6 °F 69% 30.39 in 10.0 mi West 5.8 mph - N/A   Clear
7:55 PM 24.8 °F 20.5 °F 17.6 °F 74% 30.40 in 10.0 mi WNW 3.5 mph - N/A   Clear
8:15 PM 23.0 °F 15.8 °F 17.6 °F 80% 30.40 in 10.0 mi WNW 5.8 mph - N/A   Clear
8:35 PM 26.6 °F 20.0 °F 17.6 °F 69% 30.41 in 10.0 mi WNW 5.8 mph - N/A   Clear
8:55 PM 24.8 °F 19.1 °F 17.6 °F 74% 30.42 in 10.0 mi WNW 4.6 mph - N/A   Clear
9:15 PM 24.8 °F 19.1 °F 17.6 °F 74% 30.42 in 10.0 mi NW 4.6 mph - N/A   Clear
9:35 PM 23.0 °F 17.0 °F 17.6 °F 80% 30.43 in 10.0 mi NW 4.6 mph - N/A   Clear
9:55 PM 21.2 °F 13.6 °F 17.6 °F 86% 30.44 in 10.0 mi NW 5.8 mph - N/A   Clear
10:15 PM 21.2 °F 13.6 °F 17.6 °F 86% 30.44 in 10.0 mi NW 5.8 mph - N/A   Clear
10:35 PM 23.0 °F 15.8 °F 17.6 °F 80% 30.45 in 10.0 mi NW 5.8 mph - N/A   Clear
10:55 PM 21.2 °F 14.9 °F 17.6 °F 86% 30.47 in 10.0 mi NW 4.6 mph - N/A   Clear
11:15 PM 21.2 °F 16.4 °F 17.6 °F 86% 30.47 in 10.0 mi NNW 3.5 mph - N/A   Clear
11:35 PM 21.2 °F 16.4 °F 17.6 °F 86% 30.47 in 10.0 mi WNW 3.5 mph - N/A   Clear
11:55 PM 21.2 °F 14.9 °F 17.6 °F 86% 30.48 in 10.0 mi NW 4.6 mph - N/A   Clear